Aérodrome :
LOGIN :

S'inscrire | Disclaimer

   EN    FR    IT 

 










Légende :    VFR   VFR Marginal   IFR   IFR Intensif   IFR Très Intensif
Visi : 
Plafond : 
>= 8 km
>= 3000ft
5 à 8 km
1000 à 3000 ft
1500m à 5 km
500 à 1000 ft
800 à 1500m
200 à 500 ft
< 800m
< 200 ft
Symboles :   Orages  Brouillard  Fortes neiges  Fortes précipitations  Vent > 20 kt
SIGMETs :   Divers  Orages  Givrage  Turbulence  Onde Orograph.  Cendres Volcan.







- Altitude de l'aérodrome : 628 ft
- Code IATA : CMR
- Voir les cartes d'approche


LFGA - Colmar-Houssen

DERNIER METAR :
  • 211500Z AUTO 20004KT 150V240 9999 FEW042/// ///CB 24/16 Q1013

METARs EXPIRÉS :
  • 211430Z AUTO 20003KT 160V240 9999 BKN044 BKN180 23/16 Q1013
  • 211400Z AUTO 19004KT 140V260 CAVOK 23/17 Q1013
  • 211330Z AUTO 22006KT 180V240 9999 -RA FEW022 SCT056 BKN072 21/17 Q1013
  • 211300Z AUTO 14005KT 110V180 9999 ///CB 22/16 Q1013
  • 211230Z AUTO 16005KT 110V210 CAVOK 22/17 Q1013

TAF N/A
Pas de NOTAMs connus pour ce terrain.



MET'MAP, la Météo Aéronautique d'un coup d'oeil ! - Copyright ORBIFLY Décembre 2007 - Disclaimer

ORBIFLY MET'MAP TEAM :

Programmation & Développement : Alexandra Zaïnal
Conception & Développement : Baudouin d'Aumeries
Co-Programmation & Développement : Marc-Olivier Méhu
Soutien technique & logistique : Manuel Goepfert

Contact : metmap@orbifly.com




SOURCES & CREDITS :

   NOAA